sensor_id;sensor_type;location;lat;lon;timestamp;P1;durP1;ratioP1;P2;durP2;ratioP2
33714;SDS011;20043;50.998;4.754;2023-09-30T00:01:52;13.55;;;7.03;;
33714;SDS011;20043;50.998;4.754;2023-09-30T00:04:18;10.27;;;6.18;;
33714;SDS011;20043;50.998;4.754;2023-09-30T00:06:44;12.45;;;6.97;;
33714;SDS011;20043;50.998;4.754;2023-09-30T00:09:09;10.20;;;6.68;;
33714;SDS011;20043;50.998;4.754;2023-09-30T00:11:36;12.38;;;6.47;;
33714;SDS011;20043;50.998;4.754;2023-09-30T00:14:02;13.68;;;7.25;;
33714;SDS011;20043;50.998;4.754;2023-09-30T00:16:28;13.50;;;6.95;;
33714;SDS011;20043;50.998;4.754;2023-09-30T00:18:53;15.25;;;7.07;;
33714;SDS011;20043;50.998;4.754;2023-09-30T00:21:19;12.50;;;7.25;;
33714;SDS011;20043;50.998;4.754;2023-09-30T00:23:44;13.10;;;7.07;;
33714;SDS011;20043;50.998;4.754;2023-09-30T00:26:10;12.82;;;7.05;;
33714;SDS011;20043;50.998;4.754;2023-09-30T00:28:36;12.85;;;7.30;;
33714;SDS011;20043;50.998;4.754;2023-09-30T00:31:06;12.02;;;7.07;;
33714;SDS011;20043;50.998;4.754;2023-09-30T00:33:34;15.63;;;6.97;;
33714;SDS011;20043;50.998;4.754;2023-09-30T00:35:59;13.50;;;6.07;;
33714;SDS011;20043;50.998;4.754;2023-09-30T00:38:30;9.35;;;6.10;;
33714;SDS011;20043;50.998;4.754;2023-09-30T00:40:55;14.57;;;6.63;;
33714;SDS011;20043;50.998;4.754;2023-09-30T00:43:21;13.73;;;6.55;;
33714;SDS011;20043;50.998;4.754;2023-09-30T00:46:01;19.02;;;6.68;;
33714;SDS011;20043;50.998;4.754;2023-09-30T00:48:31;10.93;;;6.13;;
33714;SDS011;20043;50.998;4.754;2023-09-30T00:51:00;14.23;;;6.68;;
33714;SDS011;20043;50.998;4.754;2023-09-30T00:53:26;10.95;;;6.55;;
33714;SDS011;20043;50.998;4.754;2023-09-30T00:55:53;13.18;;;6.35;;
33714;SDS011;20043;50.998;4.754;2023-09-30T00:58:21;12.38;;;6.15;;
33714;SDS011;20043;50.998;4.754;2023-09-30T01:00:50;10.43;;;6.28;;
33714;SDS011;20043;50.998;4.754;2023-09-30T01:03:17;11.23;;;6.18;;
33714;SDS011;20043;50.998;4.754;2023-09-30T01:05:43;11.10;;;6.35;;
33714;SDS011;20043;50.998;4.754;2023-09-30T01:08:08;9.07;;;6.35;;
33714;SDS011;20043;50.998;4.754;2023-09-30T01:10:34;10.07;;;6.55;;
33714;SDS011;20043;50.998;4.754;2023-09-30T01:12:59;10.77;;;6.53;;
33714;SDS011;20043;50.998;4.754;2023-09-30T01:15:25;8.10;;;5.88;;
33714;SDS011;20043;50.998;4.754;2023-09-30T01:17:51;11.50;;;6.22;;
33714;SDS011;20043;50.998;4.754;2023-09-30T01:20:16;10.25;;;6.22;;
33714;SDS011;20043;50.998;4.754;2023-09-30T01:22:44;11.23;;;6.32;;
33714;SDS011;20043;50.998;4.754;2023-09-30T01:25:10;16.02;;;6.97;;
33714;SDS011;20043;50.998;4.754;2023-09-30T01:27:36;11.73;;;6.38;;
33714;SDS011;20043;50.998;4.754;2023-09-30T01:30:02;16.73;;;7.15;;
33714;SDS011;20043;50.998;4.754;2023-09-30T01:32:28;12.98;;;6.80;;
33714;SDS011;20043;50.998;4.754;2023-09-30T01:34:53;11.55;;;6.10;;
33714;SDS011;20043;50.998;4.754;2023-09-30T01:37:19;11.52;;;5.68;;
33714;SDS011;20043;50.998;4.754;2023-09-30T01:39:44;7.80;;;5.22;;
33714;SDS011;20043;50.998;4.754;2023-09-30T01:42:10;9.40;;;5.50;;
33714;SDS011;20043;50.998;4.754;2023-09-30T01:44:36;7.45;;;5.43;;
33714;SDS011;20043;50.998;4.754;2023-09-30T01:47:02;8.88;;;5.40;;
33714;SDS011;20043;50.998;4.754;2023-09-30T01:49:28;13.98;;;5.53;;
33714;SDS011;20043;50.998;4.754;2023-09-30T01:51:54;8.48;;;4.90;;
33714;SDS011;20043;50.998;4.754;2023-09-30T01:54:19;11.73;;;5.65;;
33714;SDS011;20043;50.998;4.754;2023-09-30T01:56:45;9.02;;;5.00;;
33714;SDS011;20043;50.998;4.754;2023-09-30T01:59:10;9.65;;;5.25;;
33714;SDS011;20043;50.998;4.754;2023-09-30T02:01:36;11.55;;;4.78;;
33714;SDS011;20043;50.998;4.754;2023-09-30T02:04:10;9.32;;;5.65;;
33714;SDS011;20043;50.998;4.754;2023-09-30T02:06:36;14.75;;;5.93;;
33714;SDS011;20043;50.998;4.754;2023-09-30T02:09:01;14.45;;;4.88;;
33714;SDS011;20043;50.998;4.754;2023-09-30T02:11:28;12.48;;;5.88;;
33714;SDS011;20043;50.998;4.754;2023-09-30T02:13:54;11.35;;;5.38;;
33714;SDS011;20043;50.998;4.754;2023-09-30T02:16:19;9.43;;;4.80;;
33714;SDS011;20043;50.998;4.754;2023-09-30T02:18:45;6.28;;;4.78;;
33714;SDS011;20043;50.998;4.754;2023-09-30T02:21:11;10.98;;;4.82;;
33714;SDS011;20043;50.998;4.754;2023-09-30T02:23:36;10.25;;;4.82;;
33714;SDS011;20043;50.998;4.754;2023-09-30T02:26:02;9.00;;;4.78;;
33714;SDS011;20043;50.998;4.754;2023-09-30T02:28:28;9.25;;;5.88;;
33714;SDS011;20043;50.998;4.754;2023-09-30T02:30:57;11.35;;;5.93;;
33714;SDS011;20043;50.998;4.754;2023-09-30T02:33:24;16.92;;;6.00;;
33714;SDS011;20043;50.998;4.754;2023-09-30T02:35:51;9.00;;;5.13;;
33714;SDS011;20043;50.998;4.754;2023-09-30T02:38:16;12.95;;;6.15;;
33714;SDS011;20043;50.998;4.754;2023-09-30T02:40:44;11.93;;;5.60;;
33714;SDS011;20043;50.998;4.754;2023-09-30T02:43:11;8.32;;;5.45;;
33714;SDS011;20043;50.998;4.754;2023-09-30T02:45:38;12.20;;;5.93;;
33714;SDS011;20043;50.998;4.754;2023-09-30T02:48:04;8.65;;;5.82;;
33714;SDS011;20043;50.998;4.754;2023-09-30T02:50:31;10.55;;;6.22;;
33714;SDS011;20043;50.998;4.754;2023-09-30T02:52:57;12.10;;;6.28;;
33714;SDS011;20043;50.998;4.754;2023-09-30T02:55:22;11.80;;;6.15;;
33714;SDS011;20043;50.998;4.754;2023-09-30T02:57:48;12.45;;;5.90;;
33714;SDS011;20043;50.998;4.754;2023-09-30T03:00:14;13.75;;;5.53;;
33714;SDS011;20043;50.998;4.754;2023-09-30T03:02:54;10.90;;;6.15;;
33714;SDS011;20043;50.998;4.754;2023-09-30T03:05:21;14.48;;;5.90;;
33714;SDS011;20043;50.998;4.754;2023-09-30T03:07:47;11.25;;;5.68;;
33714;SDS011;20043;50.998;4.754;2023-09-30T03:10:15;9.75;;;6.00;;
33714;SDS011;20043;50.998;4.754;2023-09-30T03:12:59;14.60;;;6.32;;
33714;SDS011;20043;50.998;4.754;2023-09-30T03:15:33;14.13;;;7.32;;
33714;SDS011;20043;50.998;4.754;2023-09-30T03:17:58;11.23;;;7.30;;
33714;SDS011;20043;50.998;4.754;2023-09-30T03:20:25;20.17;;;8.43;;
33714;SDS011;20043;50.998;4.754;2023-09-30T03:22:51;13.65;;;7.50;;
33714;SDS011;20043;50.998;4.754;2023-09-30T03:25:18;13.32;;;7.07;;
33714;SDS011;20043;50.998;4.754;2023-09-30T03:27:47;13.75;;;7.47;;
33714;SDS011;20043;50.998;4.754;2023-09-30T03:30:13;13.63;;;6.95;;
33714;SDS011;20043;50.998;4.754;2023-09-30T03:32:40;11.32;;;7.53;;
33714;SDS011;20043;50.998;4.754;2023-09-30T03:35:07;11.25;;;7.10;;
33714;SDS011;20043;50.998;4.754;2023-09-30T03:37:42;12.80;;;6.88;;
33714;SDS011;20043;50.998;4.754;2023-09-30T03:40:12;9.02;;;6.07;;
33714;SDS011;20043;50.998;4.754;2023-09-30T03:42:52;12.30;;;6.00;;
33714;SDS011;20043;50.998;4.754;2023-09-30T03:45:19;13.23;;;6.65;;
33714;SDS011;20043;50.998;4.754;2023-09-30T03:47:44;18.15;;;7.63;;
33714;SDS011;20043;50.998;4.754;2023-09-30T03:50:11;14.20;;;7.18;;
33714;SDS011;20043;50.998;4.754;2023-09-30T03:52:40;13.30;;;7.22;;
33714;SDS011;20043;50.998;4.754;2023-09-30T03:55:10;9.68;;;6.90;;
33714;SDS011;20043;50.998;4.754;2023-09-30T03:57:37;10.68;;;6.93;;
33714;SDS011;20043;50.998;4.754;2023-09-30T04:00:03;13.70;;;7.32;;
33714;SDS011;20043;50.998;4.754;2023-09-30T04:02:31;14.95;;;7.10;;
33714;SDS011;20043;50.998;4.754;2023-09-30T04:04:57;10.18;;;6.00;;
33714;SDS011;20043;50.998;4.754;2023-09-30T04:07:24;13.18;;;6.90;;
33714;SDS011;20043;50.998;4.754;2023-09-30T04:09:53;13.95;;;7.45;;
33714;SDS011;20043;50.998;4.754;2023-09-30T04:12:20;9.93;;;7.00;;
33714;SDS011;20043;50.998;4.754;2023-09-30T04:14:48;10.75;;;7.35;;
33714;SDS011;20043;50.998;4.754;2023-09-30T04:17:14;13.88;;;7.95;;
33714;SDS011;20043;50.998;4.754;2023-09-30T04:19:40;15.00;;;7.55;;
33714;SDS011;20043;50.998;4.754;2023-09-30T04:22:05;15.32;;;7.80;;
33714;SDS011;20043;50.998;4.754;2023-09-30T04:24:31;18.15;;;7.45;;
33714;SDS011;20043;50.998;4.754;2023-09-30T04:26:57;12.00;;;7.10;;
33714;SDS011;20043;50.998;4.754;2023-09-30T04:29:27;17.15;;;7.50;;
33714;SDS011;20043;50.998;4.754;2023-09-30T04:31:52;13.38;;;7.13;;
33714;SDS011;20043;50.998;4.754;2023-09-30T04:34:19;14.20;;;7.38;;
33714;SDS011;20043;50.998;4.754;2023-09-30T04:36:46;15.73;;;7.45;;
33714;SDS011;20043;50.998;4.754;2023-09-30T04:39:12;12.25;;;7.63;;
33714;SDS011;20043;50.998;4.754;2023-09-30T04:41:39;17.33;;;7.95;;
33714;SDS011;20043;50.998;4.754;2023-09-30T04:44:06;13.02;;;8.40;;
33714;SDS011;20043;50.998;4.754;2023-09-30T04:46:32;13.80;;;7.00;;
33714;SDS011;20043;50.998;4.754;2023-09-30T04:48:58;12.45;;;7.22;;
33714;SDS011;20043;50.998;4.754;2023-09-30T04:51:24;17.00;;;8.10;;
33714;SDS011;20043;50.998;4.754;2023-09-30T04:53:50;18.13;;;9.50;;
33714;SDS011;20043;50.998;4.754;2023-09-30T04:56:16;19.05;;;10.27;;
33714;SDS011;20043;50.998;4.754;2023-09-30T04:58:42;29.50;;;12.25;;
33714;SDS011;20043;50.998;4.754;2023-09-30T05:01:07;21.48;;;11.55;;
33714;SDS011;20043;50.998;4.754;2023-09-30T05:03:34;29.13;;;13.40;;
33714;SDS011;20043;50.998;4.754;2023-09-30T05:06:00;21.15;;;10.05;;
33714;SDS011;20043;50.998;4.754;2023-09-30T05:08:26;25.15;;;12.75;;
33714;SDS011;20043;50.998;4.754;2023-09-30T05:10:53;24.58;;;12.57;;
33714;SDS011;20043;50.998;4.754;2023-09-30T05:13:21;30.85;;;14.57;;
33714;SDS011;20043;50.998;4.754;2023-09-30T05:15:48;27.02;;;13.30;;
33714;SDS011;20043;50.998;4.754;2023-09-30T05:18:15;19.38;;;12.00;;
33714;SDS011;20043;50.998;4.754;2023-09-30T05:20:40;21.25;;;12.23;;
33714;SDS011;20043;50.998;4.754;2023-09-30T05:23:06;26.02;;;13.45;;
33714;SDS011;20043;50.998;4.754;2023-09-30T05:25:37;25.33;;;13.70;;
33714;SDS011;20043;50.998;4.754;2023-09-30T05:28:05;30.00;;;15.23;;
33714;SDS011;20043;50.998;4.754;2023-09-30T05:30:31;27.75;;;15.23;;
33714;SDS011;20043;50.998;4.754;2023-09-30T05:32:58;27.63;;;15.40;;
33714;SDS011;20043;50.998;4.754;2023-09-30T05:35:25;26.15;;;16.42;;
33714;SDS011;20043;50.998;4.754;2023-09-30T05:37:50;36.42;;;17.90;;
33714;SDS011;20043;50.998;4.754;2023-09-30T05:40:19;33.03;;;18.38;;
33714;SDS011;20043;50.998;4.754;2023-09-30T05:42:47;32.30;;;18.33;;
33714;SDS011;20043;50.998;4.754;2023-09-30T05:45:16;36.20;;;18.90;;
33714;SDS011;20043;50.998;4.754;2023-09-30T05:47:41;43.58;;;20.92;;
33714;SDS011;20043;50.998;4.754;2023-09-30T05:50:09;42.00;;;20.83;;
33714;SDS011;20043;50.998;4.754;2023-09-30T05:52:39;34.30;;;19.55;;
33714;SDS011;20043;50.998;4.754;2023-09-30T05:55:05;53.53;;;24.23;;
33714;SDS011;20043;50.998;4.754;2023-09-30T05:57:31;35.38;;;21.25;;
33714;SDS011;20043;50.998;4.754;2023-09-30T05:59:57;41.08;;;21.73;;
33714;SDS011;20043;50.998;4.754;2023-09-30T06:02:23;38.53;;;19.92;;
33714;SDS011;20043;50.998;4.754;2023-09-30T06:04:50;29.10;;;17.85;;
33714;SDS011;20043;50.998;4.754;2023-09-30T06:07:18;35.58;;;17.77;;
33714;SDS011;20043;50.998;4.754;2023-09-30T06:09:45;33.65;;;18.73;;
33714;SDS011;20043;50.998;4.754;2023-09-30T06:12:13;33.85;;;19.35;;
33714;SDS011;20043;50.998;4.754;2023-09-30T06:14:39;38.88;;;18.88;;
33714;SDS011;20043;50.998;4.754;2023-09-30T06:17:05;34.63;;;19.83;;
33714;SDS011;20043;50.998;4.754;2023-09-30T06:19:32;40.05;;;21.00;;
33714;SDS011;20043;50.998;4.754;2023-09-30T06:21:57;35.13;;;20.58;;
33714;SDS011;20043;50.998;4.754;2023-09-30T06:24:24;34.55;;;20.52;;
33714;SDS011;20043;50.998;4.754;2023-09-30T06:26:49;36.65;;;20.80;;
33714;SDS011;20043;50.998;4.754;2023-09-30T06:29:15;44.92;;;21.02;;
33714;SDS011;20043;50.998;4.754;2023-09-30T06:31:40;40.40;;;21.77;;
33714;SDS011;20043;50.998;4.754;2023-09-30T06:34:06;41.95;;;20.35;;
33714;SDS011;20043;50.998;4.754;2023-09-30T06:36:32;38.72;;;20.73;;
33714;SDS011;20043;50.998;4.754;2023-09-30T06:38:57;35.33;;;19.70;;
33714;SDS011;20043;50.998;4.754;2023-09-30T06:41:24;36.05;;;20.73;;
33714;SDS011;20043;50.998;4.754;2023-09-30T06:43:50;39.10;;;20.20;;
33714;SDS011;20043;50.998;4.754;2023-09-30T06:46:16;45.58;;;22.08;;
33714;SDS011;20043;50.998;4.754;2023-09-30T06:48:42;42.58;;;23.38;;
33714;SDS011;20043;50.998;4.754;2023-09-30T06:51:12;42.40;;;22.63;;
33714;SDS011;20043;50.998;4.754;2023-09-30T06:53:40;40.45;;;22.42;;
33714;SDS011;20043;50.998;4.754;2023-09-30T06:56:05;42.88;;;23.05;;
33714;SDS011;20043;50.998;4.754;2023-09-30T06:58:31;41.13;;;23.67;;
33714;SDS011;20043;50.998;4.754;2023-09-30T07:00:58;48.03;;;24.15;;
33714;SDS011;20043;50.998;4.754;2023-09-30T07:03:23;47.17;;;24.73;;
33714;SDS011;20043;50.998;4.754;2023-09-30T07:05:49;42.30;;;23.48;;
33714;SDS011;20043;50.998;4.754;2023-09-30T07:08:18;38.92;;;23.20;;
33714;SDS011;20043;50.998;4.754;2023-09-30T07:10:46;46.25;;;22.92;;
33714;SDS011;20043;50.998;4.754;2023-09-30T07:13:14;45.33;;;22.23;;
33714;SDS011;20043;50.998;4.754;2023-09-30T07:15:41;41.63;;;21.15;;
33714;SDS011;20043;50.998;4.754;2023-09-30T07:18:06;44.08;;;20.98;;
33714;SDS011;20043;50.998;4.754;2023-09-30T07:20:32;40.80;;;19.92;;
33714;SDS011;20043;50.998;4.754;2023-09-30T07:23:01;37.10;;;20.20;;
33714;SDS011;20043;50.998;4.754;2023-09-30T07:25:28;38.20;;;19.95;;
33714;SDS011;20043;50.998;4.754;2023-09-30T07:27:57;40.17;;;19.83;;
33714;SDS011;20043;50.998;4.754;2023-09-30T07:30:23;36.35;;;19.25;;
33714;SDS011;20043;50.998;4.754;2023-09-30T07:32:49;34.33;;;18.05;;
33714;SDS011;20043;50.998;4.754;2023-09-30T07:35:15;35.22;;;17.80;;
33714;SDS011;20043;50.998;4.754;2023-09-30T07:37:41;52.88;;;19.13;;
33714;SDS011;20043;50.998;4.754;2023-09-30T07:40:08;29.58;;;15.25;;
33714;SDS011;20043;50.998;4.754;2023-09-30T07:42:35;36.95;;;15.50;;
33714;SDS011;20043;50.998;4.754;2023-09-30T07:45:01;34.15;;;16.40;;
33714;SDS011;20043;50.998;4.754;2023-09-30T07:47:28;35.67;;;16.80;;
33714;SDS011;20043;50.998;4.754;2023-09-30T07:49:55;37.67;;;15.40;;
33714;SDS011;20043;50.998;4.754;2023-09-30T07:52:21;37.50;;;15.55;;
33714;SDS011;20043;50.998;4.754;2023-09-30T07:54:47;35.20;;;15.60;;
33714;SDS011;20043;50.998;4.754;2023-09-30T07:57:12;36.72;;;16.10;;
33714;SDS011;20043;50.998;4.754;2023-09-30T07:59:38;31.15;;;16.20;;
33714;SDS011;20043;50.998;4.754;2023-09-30T08:02:04;28.05;;;13.75;;
33714;SDS011;20043;50.998;4.754;2023-09-30T08:04:30;29.92;;;14.65;;
33714;SDS011;20043;50.998;4.754;2023-09-30T08:06:56;36.47;;;14.05;;
33714;SDS011;20043;50.998;4.754;2023-09-30T08:09:22;31.42;;;13.85;;
33714;SDS011;20043;50.998;4.754;2023-09-30T08:11:49;27.88;;;12.82;;
33714;SDS011;20043;50.998;4.754;2023-09-30T08:14:15;30.02;;;13.80;;
33714;SDS011;20043;50.998;4.754;2023-09-30T08:16:41;31.92;;;13.18;;
33714;SDS011;20043;50.998;4.754;2023-09-30T08:19:08;30.35;;;12.70;;
33714;SDS011;20043;50.998;4.754;2023-09-30T08:21:34;36.47;;;12.10;;
33714;SDS011;20043;50.998;4.754;2023-09-30T08:23:59;35.75;;;12.57;;
33714;SDS011;20043;50.998;4.754;2023-09-30T08:26:27;31.45;;;11.63;;
33714;SDS011;20043;50.998;4.754;2023-09-30T08:28:52;35.92;;;12.68;;
33714;SDS011;20043;50.998;4.754;2023-09-30T08:31:18;31.08;;;11.20;;
33714;SDS011;20043;50.998;4.754;2023-09-30T08:33:44;27.70;;;10.02;;
33714;SDS011;20043;50.998;4.754;2023-09-30T08:36:11;34.95;;;10.85;;
33714;SDS011;20043;50.998;4.754;2023-09-30T08:38:37;30.77;;;10.35;;
33714;SDS011;20043;50.998;4.754;2023-09-30T08:41:04;28.08;;;9.45;;
33714;SDS011;20043;50.998;4.754;2023-09-30T08:43:30;30.25;;;9.75;;
33714;SDS011;20043;50.998;4.754;2023-09-30T08:45:57;25.73;;;9.23;;
33714;SDS011;20043;50.998;4.754;2023-09-30T08:48:26;29.13;;;8.70;;
33714;SDS011;20043;50.998;4.754;2023-09-30T08:50:55;28.80;;;9.02;;
33714;SDS011;20043;50.998;4.754;2023-09-30T08:53:22;23.52;;;9.15;;
33714;SDS011;20043;50.998;4.754;2023-09-30T08:55:49;23.15;;;8.48;;
33714;SDS011;20043;50.998;4.754;2023-09-30T08:58:18;25.73;;;8.57;;
33714;SDS011;20043;50.998;4.754;2023-09-30T09:00:44;25.10;;;8.52;;
33714;SDS011;20043;50.998;4.754;2023-09-30T09:03:10;23.20;;;8.45;;
33714;SDS011;20043;50.998;4.754;2023-09-30T09:05:36;24.42;;;8.38;;
33714;SDS011;20043;50.998;4.754;2023-09-30T09:08:02;24.92;;;8.57;;
33714;SDS011;20043;50.998;4.754;2023-09-30T09:10:28;22.38;;;8.32;;
33714;SDS011;20043;50.998;4.754;2023-09-30T09:12:57;17.73;;;7.18;;
33714;SDS011;20043;50.998;4.754;2023-09-30T09:15:24;23.80;;;7.50;;
33714;SDS011;20043;50.998;4.754;2023-09-30T09:17:51;17.65;;;6.78;;
33714;SDS011;20043;50.998;4.754;2023-09-30T09:20:18;24.58;;;7.53;;
33714;SDS011;20043;50.998;4.754;2023-09-30T09:22:46;19.42;;;6.55;;
33714;SDS011;20043;50.998;4.754;2023-09-30T09:25:15;21.52;;;6.88;;
33714;SDS011;20043;50.998;4.754;2023-09-30T09:27:41;21.85;;;6.32;;
33714;SDS011;20043;50.998;4.754;2023-09-30T09:30:17;19.75;;;6.80;;
33714;SDS011;20043;50.998;4.754;2023-09-30T09:35:36;16.67;;;6.20;;
33714;SDS011;20043;50.998;4.754;2023-09-30T09:38:03;14.15;;;6.35;;
33714;SDS011;20043;50.998;4.754;2023-09-30T09:40:33;19.92;;;7.00;;
33714;SDS011;20043;50.998;4.754;2023-09-30T09:43:00;17.27;;;6.75;;
33714;SDS011;20043;50.998;4.754;2023-09-30T09:45:30;17.88;;;6.30;;
33714;SDS011;20043;50.998;4.754;2023-09-30T09:48:02;21.30;;;6.65;;
33714;SDS011;20043;50.998;4.754;2023-09-30T09:50:29;19.77;;;6.53;;
33714;SDS011;20043;50.998;4.754;2023-09-30T09:52:57;20.67;;;6.47;;
33714;SDS011;20043;50.998;4.754;2023-09-30T09:55:25;18.95;;;6.63;;
33714;SDS011;20043;50.998;4.754;2023-09-30T09:57:52;17.08;;;6.00;;
33714;SDS011;20043;50.998;4.754;2023-09-30T10:02:49;22.13;;;6.05;;
33714;SDS011;20043;50.998;4.754;2023-09-30T10:05:16;12.90;;;5.38;;
33714;SDS011;20043;50.998;4.754;2023-09-30T10:07:54;18.23;;;5.63;;
33714;SDS011;20043;50.998;4.754;2023-09-30T10:10:25;12.27;;;4.90;;
33714;SDS011;20043;50.998;4.754;2023-09-30T10:12:53;20.33;;;5.75;;
33714;SDS011;20043;50.998;4.754;2023-09-30T10:20:36;17.80;;;5.70;;
33714;SDS011;20043;50.998;4.754;2023-09-30T10:23:37;15.48;;;4.80;;
33714;SDS011;20043;50.998;4.754;2023-09-30T10:28:40;13.57;;;3.92;;
33714;SDS011;20043;50.998;4.754;2023-09-30T10:31:11;13.95;;;4.70;;
33714;SDS011;20043;50.998;4.754;2023-09-30T10:36:31;14.68;;;4.90;;
33714;SDS011;20043;50.998;4.754;2023-09-30T10:38:58;17.50;;;5.20;;
33714;SDS011;20043;50.998;4.754;2023-09-30T10:46:53;12.48;;;4.05;;
33714;SDS011;20043;50.998;4.754;2023-09-30T10:49:49;15.00;;;4.70;;
33714;SDS011;20043;50.998;4.754;2023-09-30T10:52:21;15.02;;;5.10;;
33714;SDS011;20043;50.998;4.754;2023-09-30T10:54:48;17.00;;;4.97;;
33714;SDS011;20043;50.998;4.754;2023-09-30T10:57:14;17.42;;;5.07;;
33714;SDS011;20043;50.998;4.754;2023-09-30T11:00:09;15.48;;;4.93;;
33714;SDS011;20043;50.998;4.754;2023-09-30T11:02:47;18.42;;;4.78;;
33714;SDS011;20043;50.998;4.754;2023-09-30T11:05:14;17.90;;;4.60;;
33714;SDS011;20043;50.998;4.754;2023-09-30T11:07:39;17.92;;;5.07;;
33714;SDS011;20043;50.998;4.754;2023-09-30T11:10:07;15.27;;;4.90;;
33714;SDS011;20043;50.998;4.754;2023-09-30T11:12:33;14.77;;;4.28;;
33714;SDS011;20043;50.998;4.754;2023-09-30T11:14:59;17.52;;;5.10;;
33714;SDS011;20043;50.998;4.754;2023-09-30T11:17:27;17.23;;;4.72;;
33714;SDS011;20043;50.998;4.754;2023-09-30T11:19:52;17.73;;;4.90;;
33714;SDS011;20043;50.998;4.754;2023-09-30T11:22:19;17.35;;;4.88;;
33714;SDS011;20043;50.998;4.754;2023-09-30T11:24:45;14.80;;;4.32;;
33714;SDS011;20043;50.998;4.754;2023-09-30T11:27:11;16.30;;;4.80;;
33714;SDS011;20043;50.998;4.754;2023-09-30T11:29:36;18.17;;;5.00;;
33714;SDS011;20043;50.998;4.754;2023-09-30T11:32:22;14.05;;;4.65;;
33714;SDS011;20043;50.998;4.754;2023-09-30T11:34:52;13.20;;;4.18;;
33714;SDS011;20043;50.998;4.754;2023-09-30T11:37:18;19.27;;;3.95;;
33714;SDS011;20043;50.998;4.754;2023-09-30T11:39:43;16.15;;;4.40;;
33714;SDS011;20043;50.998;4.754;2023-09-30T11:42:17;16.70;;;4.40;;
33714;SDS011;20043;50.998;4.754;2023-09-30T11:44:44;17.63;;;4.75;;
33714;SDS011;20043;50.998;4.754;2023-09-30T11:47:13;11.90;;;4.38;;
33714;SDS011;20043;50.998;4.754;2023-09-30T11:49:41;12.55;;;4.10;;
33714;SDS011;20043;50.998;4.754;2023-09-30T11:52:12;11.75;;;3.38;;
33714;SDS011;20043;50.998;4.754;2023-09-30T11:54:40;13.65;;;4.43;;
33714;SDS011;20043;50.998;4.754;2023-09-30T11:57:09;12.40;;;3.85;;
33714;SDS011;20043;50.998;4.754;2023-09-30T11:59:41;11.40;;;3.72;;
33714;SDS011;20043;50.998;4.754;2023-09-30T12:02:08;12.52;;;4.05;;
33714;SDS011;20043;50.998;4.754;2023-09-30T12:04:35;15.00;;;4.60;;
33714;SDS011;20043;50.998;4.754;2023-09-30T12:07:04;12.07;;;3.78;;
33714;SDS011;20043;50.998;4.754;2023-09-30T12:09:32;9.73;;;3.70;;
33714;SDS011;20043;50.998;4.754;2023-09-30T12:12:00;15.30;;;4.88;;
33714;SDS011;20043;50.998;4.754;2023-09-30T12:14:26;14.98;;;3.72;;
33714;SDS011;20043;50.998;4.754;2023-09-30T12:16:54;12.70;;;3.60;;
33714;SDS011;20043;50.998;4.754;2023-09-30T12:19:20;11.13;;;3.70;;
33714;SDS011;20043;50.998;4.754;2023-09-30T12:21:46;11.48;;;3.60;;
33714;SDS011;20043;50.998;4.754;2023-09-30T12:24:17;14.88;;;3.88;;
33714;SDS011;20043;50.998;4.754;2023-09-30T12:26:46;12.38;;;3.72;;
33714;SDS011;20043;50.998;4.754;2023-09-30T12:29:19;10.52;;;3.40;;
33714;SDS011;20043;50.998;4.754;2023-09-30T12:31:47;14.75;;;3.78;;
33714;SDS011;20043;50.998;4.754;2023-09-30T12:34:14;54.58;;;4.53;;
33714;SDS011;20043;50.998;4.754;2023-09-30T12:36:40;8.48;;;3.00;;
33714;SDS011;20043;50.998;4.754;2023-09-30T12:39:06;12.07;;;3.75;;
33714;SDS011;20043;50.998;4.754;2023-09-30T12:41:44;12.15;;;3.40;;
33714;SDS011;20043;50.998;4.754;2023-09-30T12:44:10;12.57;;;4.20;;
33714;SDS011;20043;50.998;4.754;2023-09-30T12:46:36;16.77;;;4.68;;
33714;SDS011;20043;50.998;4.754;2023-09-30T12:49:04;13.27;;;3.70;;
33714;SDS011;20043;50.998;4.754;2023-09-30T12:51:31;14.23;;;3.95;;
33714;SDS011;20043;50.998;4.754;2023-09-30T12:53:57;14.15;;;4.20;;
33714;SDS011;20043;50.998;4.754;2023-09-30T12:56:23;14.25;;;3.92;;
33714;SDS011;20043;50.998;4.754;2023-09-30T12:58:49;12.05;;;3.67;;
33714;SDS011;20043;50.998;4.754;2023-09-30T13:01:15;11.88;;;3.85;;
33714;SDS011;20043;50.998;4.754;2023-09-30T13:03:43;8.98;;;3.33;;
33714;SDS011;20043;50.998;4.754;2023-09-30T13:06:09;11.85;;;4.15;;
33714;SDS011;20043;50.998;4.754;2023-09-30T13:08:41;13.55;;;3.70;;
33714;SDS011;20043;50.998;4.754;2023-09-30T13:11:08;10.00;;;3.50;;
33714;SDS011;20043;50.998;4.754;2023-09-30T13:13:34;10.45;;;3.25;;
33714;SDS011;20043;50.998;4.754;2023-09-30T13:16:00;11.00;;;3.55;;
33714;SDS011;20043;50.998;4.754;2023-09-30T13:18:26;13.32;;;3.58;;
33714;SDS011;20043;50.998;4.754;2023-09-30T13:20:53;10.65;;;3.92;;
33714;SDS011;20043;50.998;4.754;2023-09-30T13:23:19;9.07;;;2.97;;
33714;SDS011;20043;50.998;4.754;2023-09-30T13:25:45;12.02;;;3.22;;
33714;SDS011;20043;50.998;4.754;2023-09-30T13:28:12;11.60;;;3.55;;
33714;SDS011;20043;50.998;4.754;2023-09-30T13:30:38;13.20;;;3.65;;
33714;SDS011;20043;50.998;4.754;2023-09-30T13:33:04;8.93;;;3.28;;
33714;SDS011;20043;50.998;4.754;2023-09-30T13:35:30;11.85;;;3.15;;
33714;SDS011;20043;50.998;4.754;2023-09-30T13:37:56;11.52;;;3.50;;
33714;SDS011;20043;50.998;4.754;2023-09-30T13:40:22;9.82;;;3.15;;
33714;SDS011;20043;50.998;4.754;2023-09-30T13:42:48;11.10;;;2.85;;
33714;SDS011;20043;50.998;4.754;2023-09-30T13:45:14;12.07;;;3.40;;
33714;SDS011;20043;50.998;4.754;2023-09-30T13:47:42;9.70;;;3.22;;
33714;SDS011;20043;50.998;4.754;2023-09-30T13:50:08;8.52;;;3.22;;
33714;SDS011;20043;50.998;4.754;2023-09-30T13:52:34;12.75;;;3.92;;
33714;SDS011;20043;50.998;4.754;2023-09-30T13:55:00;16.55;;;3.78;;
33714;SDS011;20043;50.998;4.754;2023-09-30T13:57:26;11.93;;;3.22;;
33714;SDS011;20043;50.998;4.754;2023-09-30T13:59:52;12.70;;;3.42;;
33714;SDS011;20043;50.998;4.754;2023-09-30T14:02:18;10.60;;;3.53;;
33714;SDS011;20043;50.998;4.754;2023-09-30T14:04:44;11.32;;;3.70;;
33714;SDS011;20043;50.998;4.754;2023-09-30T14:07:10;9.23;;;3.03;;
33714;SDS011;20043;50.998;4.754;2023-09-30T14:09:36;11.15;;;3.55;;
33714;SDS011;20043;50.998;4.754;2023-09-30T14:12:02;10.75;;;2.90;;
33714;SDS011;20043;50.998;4.754;2023-09-30T14:14:32;10.73;;;3.45;;
33714;SDS011;20043;50.998;4.754;2023-09-30T14:17:01;14.70;;;3.60;;
33714;SDS011;20043;50.998;4.754;2023-09-30T14:19:35;7.72;;;3.10;;
33714;SDS011;20043;50.998;4.754;2023-09-30T14:22:01;11.50;;;3.67;;
33714;SDS011;20043;50.998;4.754;2023-09-30T14:24:26;11.15;;;3.80;;
33714;SDS011;20043;50.998;4.754;2023-09-30T14:26:52;12.85;;;3.90;;
33714;SDS011;20043;50.998;4.754;2023-09-30T14:29:20;9.90;;;3.47;;
33714;SDS011;20043;50.998;4.754;2023-09-30T14:31:46;12.10;;;3.53;;
33714;SDS011;20043;50.998;4.754;2023-09-30T14:34:12;8.90;;;3.30;;
33714;SDS011;20043;50.998;4.754;2023-09-30T14:36:38;11.43;;;3.58;;
33714;SDS011;20043;50.998;4.754;2023-09-30T14:39:03;10.40;;;3.25;;
33714;SDS011;20043;50.998;4.754;2023-09-30T14:41:30;9.32;;;2.97;;
33714;SDS011;20043;50.998;4.754;2023-09-30T14:43:56;10.73;;;2.70;;
33714;SDS011;20043;50.998;4.754;2023-09-30T14:46:21;11.07;;;3.45;;
33714;SDS011;20043;50.998;4.754;2023-09-30T14:48:47;8.15;;;2.95;;
33714;SDS011;20043;50.998;4.754;2023-09-30T14:51:12;11.93;;;3.10;;
33714;SDS011;20043;50.998;4.754;2023-09-30T14:53:38;13.20;;;3.10;;
33714;SDS011;20043;50.998;4.754;2023-09-30T14:56:13;9.85;;;3.30;;